Time;durP1;ratioP1;P1;durP2;ratioP2;P2;SDS_P1;SDS_P2;PMS_P1;PMS_P2;Temp;Humidity;BMP_temperature;BMP_pressure;BME280_temperature;BME280_humidity;BME280_pressure;Samples;Min_cycle;Max_cycle;Signal;HPM_P1;HPM_P2
2022/08/13 00:04:13;;;;;;;45.90;11.68;;;30.80;31.50;;;;;;21258723;27;20047;-58
2022/08/13 00:14:15;;;;;;;43.45;11.18;;;30.70;32.10;;;;;;21238553;27;20476;-57
2022/08/13 00:24:17;;;;;;;34.72;11.88;;;30.50;32.70;;;;;;21256921;27;20047;-56
2022/08/13 00:34:18;;;;;;;49.20;12.50;;;30.40;32.70;;;;;;21256531;27;20129;-58
2022/08/13 00:44:20;;;;;;;47.45;12.95;;;30.20;32.90;;;;;;21255047;27;20130;-57
2022/08/13 00:54:22;;;;;;;48.13;12.15;;;30.10;33.30;;;;;;21253681;27;20483;-57
2022/08/13 01:04:25;;;;;;;48.55;10.52;;;30.10;33.20;;;;;;21253522;27;20112;-54
2022/08/13 01:14:32;;;;;;;49.97;14.15;;;29.90;33.40;;;;;;21251113;27;20043;-58
2022/08/13 01:24:37;;;;;;;44.85;12.90;;;29.60;34.10;;;;;;21250796;27;20063;-58
2022/08/13 01:34:45;;;;;;;41.15;10.63;;;29.40;34.10;;;;;;21232972;27;20055;-58
2022/08/13 01:44:50;;;;;;;46.67;11.68;;;29.20;33.80;;;;;;21248754;27;20115;-57
2022/08/13 01:54:53;;;;;;;40.03;10.48;;;29.00;34.10;;;;;;21230498;27;20043;-57
2022/08/13 02:04:56;;;;;;;37.83;9.68;;;28.80;34.10;;;;;;21247645;27;20051;-57
2022/08/13 02:15:02;;;;;;;42.40;10.63;;;28.80;33.90;;;;;;21247706;27;20071;-55
2022/08/13 02:25:05;;;;;;;31.10;9.73;;;28.80;33.90;;;;;;21247788;28;20051;-58
2022/08/13 02:35:27;;;;;;;37.95;10.90;;;28.70;34.90;;;;;;21248048;28;20073;-57
2022/08/13 02:45:45;;;;;;;39.30;10.25;;;28.70;34.50;;;;;;21230306;27;20051;-56
2022/08/13 02:56:08;;;;;;;41.83;11.48;;;28.80;34.50;;;;;;21261231;27;20049;-58
2022/08/13 03:06:10;;;;;;;37.00;11.55;;;28.60;34.80;;;;;;21262201;27;20476;-57
2022/08/13 03:16:16;;;;;;;40.92;11.43;;;28.70;34.90;;;;;;21262116;27;20047;-58
2022/08/13 03:26:20;;;;;;;36.65;9.45;;;28.70;35.00;;;;;;21260938;27;20449;-58
2022/08/13 03:36:22;;;;;;;36.78;9.90;;;28.60;35.20;;;;;;21260495;27;20071;-59
2022/08/13 03:46:26;;;;;;;39.17;10.55;;;28.50;35.30;;;;;;21259759;27;20047;-56
2022/08/13 03:56:28;;;;;;;42.72;10.23;;;28.60;35.10;;;;;;21258302;27;20453;-57
2022/08/13 04:06:30;;;;;;;45.25;11.13;;;28.90;35.00;;;;;;21255845;27;20124;-56
2022/08/13 04:16:32;;;;;;;38.30;10.57;;;28.90;34.80;;;;;;21256606;27;20051;-57
2022/08/13 04:26:36;;;;;;;50.00;11.07;;;29.00;34.70;;;;;;21255204;27;20050;-56
2022/08/13 04:36:38;;;;;;;48.97;11.85;;;28.90;35.10;;;;;;21254927;27;20047;-57
2022/08/13 04:46:40;;;;;;;50.03;12.13;;;28.80;34.50;;;;;;21253589;27;20047;-56
2022/08/13 04:56:41;;;;;;;45.67;12.35;;;28.90;33.40;;;;;;21254201;27;20054;-57
2022/08/13 05:06:45;;;;;;;44.95;11.00;;;29.00;32.40;;;;;;21252357;27;20051;-57
2022/08/13 05:16:46;;;;;;;53.08;10.70;;;28.90;32.00;;;;;;21252185;27;20066;-56
2022/08/13 05:26:48;;;;;;;50.80;11.65;;;28.90;31.80;;;;;;21250290;27;20047;-58
2022/08/13 05:36:52;;;;;;;45.05;11.95;;;28.80;32.20;;;;;;21250053;27;20491;-57
2022/08/13 05:46:54;;;;;;;46.35;10.90;;;28.80;32.60;;;;;;21249566;27;20051;-56
2022/08/13 05:56:56;;;;;;;42.58;9.82;;;29.00;32.70;;;;;;21248814;27;20047;-55
2022/08/13 06:06:58;;;;;;;46.92;11.65;;;28.70;34.10;;;;;;21248034;27;20054;-55
2022/08/13 06:17:02;;;;;;;53.40;12.05;;;28.70;33.80;;;;;;21248262;27;20091;-57
2022/08/13 06:27:04;;;;;;;60.28;11.48;;;28.80;33.70;;;;;;21256375;27;20047;-58
2022/08/13 06:37:07;;;;;;;45.78;11.02;;;28.90;33.80;;;;;;21265022;27;20047;-57
2022/08/13 06:47:09;;;;;;;44.08;10.48;;;28.90;34.20;;;;;;21263961;27;20047;-57
2022/08/13 06:57:11;;;;;;;47.03;10.55;;;28.90;34.70;;;;;;21263064;27;20046;-55
2022/08/13 07:07:16;;;;;;;40.88;9.70;;;29.10;35.00;;;;;;21243950;27;20054;-57
2022/08/13 07:17:20;;;;;;;34.85;10.07;;;29.20;35.50;;;;;;21261887;27;20510;-57
2022/08/13 07:27:23;;;;;;;43.58;10.18;;;29.20;35.80;;;;;;21242854;27;20077;-57
2022/08/13 07:37:25;;;;;;;37.63;10.20;;;29.40;36.10;;;;;;21259089;27;20081;-58
2022/08/13 07:47:29;;;;;;;39.42;8.95;;;29.50;36.00;;;;;;21259448;27;20499;-57
2022/08/13 07:57:32;;;;;;;45.00;9.30;;;29.60;36.30;;;;;;21258584;27;20043;-57
2022/08/13 08:07:37;;;;;;;41.60;14.57;;;29.60;36.50;;;;;;21257190;27;20483;-55
2022/08/13 08:17:40;;;;;;;41.20;10.60;;;29.80;36.50;;;;;;21238466;27;20054;-57
2022/08/13 08:27:43;;;;;;;42.72;9.98;;;30.00;36.40;;;;;;21254822;27;20117;-57
2022/08/13 08:48:06;;;;;;;40.03;8.40;;;30.10;36.80;;;;;;21252702;27;20043;-58
2022/08/13 08:58:10;;;;;;;24.83;6.75;;;30.20;37.30;;;;;;21233785;27;20049;-56
2022/08/13 09:08:18;;;;;;;37.22;6.72;;;30.30;35.80;;;;;;21252090;27;20466;-58
2022/08/13 09:18:21;;;;;;;30.50;6.30;;;30.20;34.40;;;;;;21250091;27;20054;-57
2022/08/13 09:28:24;;;;;;;25.55;4.93;;;30.10;34.20;;;;;;21232520;27;20085;-57
2022/08/13 09:38:27;;;;;;;26.05;6.60;;;30.10;34.80;;;;;;21249119;27;20066;-57
2022/08/13 09:48:29;;;;;;;26.70;4.93;;;29.70;35.70;;;;;;21248806;27;20085;-59
2022/08/13 09:58:32;;;;;;;17.30;3.60;;;29.50;36.60;;;;;;21247823;27;20050;-57
2022/08/13 10:08:34;;;;;;;20.13;5.55;;;29.30;37.40;;;;;;21247599;27;20050;-58
2022/08/13 10:18:36;;;;;;;18.67;4.47;;;29.20;38.10;;;;;;21247390;27;20057;-57
2022/08/13 10:28:38;;;;;;;17.35;4.40;;;29.30;37.30;;;;;;21247647;27;20067;-56
2022/08/13 10:38:40;;;;;;;16.92;4.57;;;29.30;37.40;;;;;;21246776;28;20043;-54
2022/08/13 10:48:42;;;;;;;18.00;4.93;;;29.50;37.00;;;;;;21246087;28;20134;-60
2022/08/13 10:58:44;;;;;;;18.63;5.18;;;29.50;36.80;;;;;;21247133;28;20471;-57
2022/08/13 11:08:47;;;;;;;24.02;3.47;;;29.30;37.30;;;;;;21246861;27;20062;-58
2022/08/13 11:18:49;;;;;;;15.25;4.50;;;29.40;36.80;;;;;;21244200;27;20441;-59
2022/08/13 11:28:51;;;;;;;15.73;3.65;;;29.40;37.40;;;;;;21261041;27;20069;-57
2022/08/13 11:38:52;;;;;;;17.67;5.10;;;29.30;38.40;;;;;;21242974;27;20135;-56
2022/08/13 11:48:54;;;;;;;15.05;3.97;;;29.50;38.60;;;;;;21260601;27;20490;-58
2022/08/13 11:58:56;;;;;;;16.08;4.07;;;29.60;38.20;;;;;;21258491;27;20191;-57
2022/08/13 12:08:57;;;;;;;17.95;5.13;;;29.70;37.90;;;;;;21257181;27;20129;-58
2022/08/13 12:18:59;;;;;;;10.50;5.07;;;30.00;37.50;;;;;;21256420;27;20043;-57
2022/08/13 12:29:00;;;;;;;23.88;9.40;;;30.00;37.70;;;;;;21254825;27;20113;-57
2022/08/13 12:39:03;;;;;;;20.90;4.80;;;30.00;37.60;;;;;;21253768;27;20043;-57
2022/08/13 12:49:05;;;;;;;16.13;5.50;;;30.10;36.80;;;;;;21254326;27;20047;-56
2022/08/13 12:59:07;;;;;;;10.57;3.47;;;30.00;36.70;;;;;;21252382;27;20384;-57
2022/08/13 13:09:09;;;;;;;24.40;4.95;;;30.00;36.00;;;;;;21251554;27;20054;-56
2022/08/13 13:19:11;;;;;;;21.02;5.88;;;29.70;36.50;;;;;;21251153;27;20043;-58
2022/08/13 13:29:13;;;;;;;21.02;6.25;;;29.40;40.80;;;;;;21250382;27;20051;-56
2022/08/13 13:39:15;;;;;;;16.85;5.10;;;28.90;41.40;;;;;;21250342;27;20506;-56
2022/08/13 13:49:17;;;;;;;11.10;4.05;;;29.10;40.10;;;;;;21249455;27;20101;-55
2022/08/13 13:59:19;;;;;;;18.08;4.72;;;29.30;38.80;;;;;;21248876;27;20043;-57
2022/08/13 14:09:21;;;;;;;21.40;5.57;;;29.40;38.50;;;;;;21247962;27;20043;-55
2022/08/13 14:19:24;;;;;;;11.32;3.88;;;29.30;38.20;;;;;;21247692;27;20043;-58
2022/08/13 14:29:26;;;;;;;13.18;3.63;;;29.20;38.00;;;;;;21246864;27;20499;-58
2022/08/13 14:39:28;;;;;;;14.40;3.50;;;29.20;36.60;;;;;;21246646;27;20449;-58
2022/08/13 14:49:34;;;;;;;14.23;4.78;;;29.40;36.60;;;;;;21257153;27;20043;-58
2022/08/13 14:59:35;;;;;;;14.82;3.90;;;29.60;36.10;;;;;;21263142;27;20102;-56
2022/08/13 15:09:37;;;;;;;12.80;3.70;;;29.60;37.40;;;;;;21261832;27;20069;-56
2022/08/13 15:19:40;;;;;;;13.68;3.08;;;29.30;38.10;;;;;;21261425;27;20131;-57
2022/08/13 15:29:43;;;;;;;14.88;3.90;;;29.20;38.00;;;;;;21260604;27;20055;-57
2022/08/13 15:39:45;;;;;;;15.10;4.10;;;29.10;37.30;;;;;;21259837;27;20471;-59
2022/08/13 15:49:50;;;;;;;13.85;3.65;;;29.00;37.50;;;;;;21258617;27;20497;-57
2022/08/13 15:59:52;;;;;;;10.75;3.50;;;29.00;37.80;;;;;;21258164;27;20479;-58
2022/08/13 16:09:54;;;;;;;12.63;4.43;;;28.90;38.60;;;;;;21257010;27;20086;-58
2022/08/13 16:19:56;;;;;;;13.45;3.67;;;29.00;38.30;;;;;;21255808;27;20427;-56
2022/08/13 16:30:01;;;;;;;10.50;3.45;;;28.90;38.60;;;;;;21255844;27;20051;-57
2022/08/13 16:40:05;;;;;;;15.20;3.60;;;28.90;37.90;;;;;;21255288;27;20411;-57
2022/08/13 16:50:09;;;;;;;10.02;3.47;;;29.10;37.30;;;;;;21253897;27;20098;-57
2022/08/13 17:00:18;;;;;;;9.20;4.22;;;29.10;37.20;;;;;;21252771;27;20043;-54
2022/08/13 17:10:20;;;;;;;11.68;3.13;;;29.10;36.30;;;;;;21252628;27;20397;-56
2022/08/13 17:20:25;;;;;;;15.25;4.03;;;29.10;36.50;;;;;;21251268;27;20681;-57
2022/08/13 17:30:29;;;;;;;10.98;2.97;;;29.10;36.40;;;;;;21251198;27;20131;-56
2022/08/13 17:40:30;;;;;;;11.65;3.10;;;29.10;36.60;;;;;;21249566;27;20055;-58
2022/08/13 17:50:32;;;;;;;12.45;4.32;;;28.90;37.10;;;;;;21249395;27;20051;-57
2022/08/13 18:00:36;;;;;;;11.77;3.63;;;29.00;37.10;;;;;;21248808;27;20403;-57
2022/08/13 18:10:38;;;;;;;12.80;4.03;;;28.70;37.60;;;;;;21249365;27;20078;-57
2022/08/13 18:20:39;;;;;;;12.57;4.13;;;28.70;37.90;;;;;;21248122;27;20125;-58
2022/08/13 18:30:41;;;;;;;12.93;3.33;;;28.70;37.70;;;;;;21246981;27;20058;-56
2022/08/13 18:40:43;;;;;;;14.90;3.92;;;28.60;37.80;;;;;;21246878;28;20518;-56
2022/08/13 18:50:44;;;;;;;15.52;4.05;;;28.60;38.20;;;;;;21246369;28;20051;-56
2022/08/13 19:00:46;;;;;;;16.23;5.78;;;28.40;38.50;;;;;;21245849;28;20047;-56
2022/08/13 19:10:48;;;;;;;9.68;3.63;;;28.20;39.10;;;;;;21245371;27;20043;-57
2022/08/13 19:20:51;;;;;;;10.10;3.97;;;28.10;39.70;;;;;;21227949;28;20051;-57
2022/08/13 19:30:53;;;;;;;17.08;5.20;;;27.90;40.60;;;;;;21247848;27;20133;-55
2022/08/13 19:40:55;;;;;;;10.75;4.05;;;27.90;40.90;;;;;;21259708;27;20059;-57
2022/08/13 19:50:58;;;;;;;14.77;5.65;;;27.70;41.50;;;;;;21259925;27;20467;-56
2022/08/13 20:01:00;;;;;;;15.20;5.25;;;27.50;42.00;;;;;;21257765;27;20043;-57
2022/08/13 20:11:06;;;;;;;13.00;4.97;;;27.40;42.30;;;;;;21257189;27;20039;-57
2022/08/13 20:21:07;;;;;;;13.10;5.38;;;27.30;42.50;;;;;;21256343;27;20054;-57
2022/08/13 20:31:12;;;;;;;12.27;4.38;;;27.20;42.70;;;;;;21256227;27;20088;-57
2022/08/13 20:41:14;;;;;;;12.02;4.60;;;27.30;42.60;;;;;;21254249;27;20139;-58
2022/08/13 20:51:16;;;;;;;12.90;3.97;;;27.20;42.70;;;;;;21254063;27;20539;-59
2022/08/13 21:01:18;;;;;;;14.40;4.80;;;27.10;42.90;;;;;;21252782;27;20047;-56
2022/08/13 21:11:22;;;;;;;16.48;5.50;;;27.10;43.10;;;;;;21253739;27;20126;-57
2022/08/13 21:21:24;;;;;;;11.60;4.07;;;27.00;43.30;;;;;;21252472;27;20089;-58
2022/08/13 21:31:25;;;;;;;10.93;4.90;;;26.90;43.50;;;;;;21252124;27;20479;-60
2022/08/13 21:41:27;;;;;;;11.60;3.72;;;26.70;43.80;;;;;;21250565;27;20105;-56
2022/08/13 21:51:29;;;;;;;;;;;26.70;44.00;;;;;;21250318;27;20054;-59
2022/08/13 22:01:30;;;;;;;10.50;3.03;;;26.60;44.10;;;;;;21249005;27;19920;-58
2022/08/13 22:11:32;;;;;;;12.05;3.63;;;26.60;44.50;;;;;;21248529;27;20047;-57
2022/08/13 22:21:36;;;;;;;13.88;4.43;;;26.40;44.90;;;;;;21247551;27;20100;-57
2022/08/13 22:31:39;;;;;;;17.00;4.65;;;26.40;45.30;;;;;;21247580;28;20051;-56
2022/08/13 22:41:41;;;;;;;16.02;4.55;;;26.20;45.70;;;;;;21247297;28;20047;-56
2022/08/13 22:51:43;;;;;;;12.48;3.47;;;26.00;46.30;;;;;;21247958;27;20043;-56
2022/08/13 23:01:48;;;;;;;11.02;3.83;;;25.90;46.90;;;;;;21246784;28;20058;-58
2022/08/13 23:11:50;;;;;;;12.38;3.80;;;;;;;;;;21242142;27;20444;-57
2022/08/13 23:21:53;;;;;;;16.08;4.13;;;;;;;;;;21263957;27;20095;-57
2022/08/13 23:31:55;;;;;;;12.05;4.38;;;;;;;;;;21261390;27;20053;-58
2022/08/13 23:41:57;;;;;;;14.32;4.45;;;;;;;;;;21260776;27;20089;-58
2022/08/13 23:51:59;;;;;;;9.88;4.10;;;25.40;48.10;;;;;;21259625;27;20053;-56
